sensor_id;sensor_type;location;lat;lon;timestamp;pressure;altitude;pressure_sealevel;temperature;humidity
71424;BME280;59240;51.370;-0.486;2023-11-21T00:00:06;101395.41;;;11.60;100.00
71424;BME280;59240;51.370;-0.486;2023-11-21T00:05:08;101395.41;;;11.60;100.00
71424;BME280;59240;51.370;-0.486;2023-11-21T00:10:07;101392.88;;;11.56;100.00
71424;BME280;59240;51.370;-0.486;2023-11-21T00:15:05;101411.13;;;11.56;100.00
71424;BME280;59240;51.370;-0.486;2023-11-21T00:20:02;101388.75;;;11.41;100.00
71424;BME280;59240;51.370;-0.486;2023-11-21T00:25:03;101393.22;;;11.34;100.00
71424;BME280;59240;51.370;-0.486;2023-11-21T00:30:01;101409.72;;;11.35;100.00
71424;BME280;59240;51.370;-0.486;2023-11-21T00:34:57;101437.38;;;11.45;100.00
71424;BME280;59240;51.370;-0.486;2023-11-21T00:39:55;101446.19;;;11.39;100.00
71424;BME280;59240;51.370;-0.486;2023-11-21T00:44:56;101447.91;;;11.39;100.00
71424;BME280;59240;51.370;-0.486;2023-11-21T00:49:53;101452.22;;;11.41;100.00
71424;BME280;59240;51.370;-0.486;2023-11-21T00:54:49;101453.09;;;11.42;100.00
71424;BME280;59240;51.370;-0.486;2023-11-21T00:59:47;101451.38;;;11.41;100.00
71424;BME280;59240;51.370;-0.486;2023-11-21T01:04:45;101463.50;;;11.43;100.00
71424;BME280;59240;51.370;-0.486;2023-11-21T01:09:42;101453.13;;;11.40;100.00
71424;BME280;59240;51.370;-0.486;2023-11-21T01:14:40;101450.59;;;11.34;100.00
71424;BME280;59240;51.370;-0.486;2023-11-21T01:19:37;101465.38;;;11.34;100.00
71424;BME280;59240;51.370;-0.486;2023-11-21T01:24:34;101455.97;;;11.22;100.00
71424;BME280;59240;51.370;-0.486;2023-11-21T01:29:31;101491.41;;;11.37;100.00
71424;BME280;59240;51.370;-0.486;2023-11-21T01:34:27;101501.81;;;11.38;100.00
71424;BME280;59240;51.370;-0.486;2023-11-21T01:39:25;101481.16;;;11.24;100.00
71424;BME280;59240;51.370;-0.486;2023-11-21T01:44:22;101511.41;;;11.39;100.00
71424;BME280;59240;51.370;-0.486;2023-11-21T01:49:22;101515.78;;;11.36;100.00
71424;BME280;59240;51.370;-0.486;2023-11-21T01:54:20;101520.09;;;11.38;100.00
71424;BME280;59240;51.370;-0.486;2023-11-21T01:59:21;101517.47;;;11.38;100.00
71424;BME280;59240;51.370;-0.486;2023-11-21T02:04:19;101506.34;;;11.27;100.00
71424;BME280;59240;51.370;-0.486;2023-11-21T02:09:24;101535.75;;;11.40;100.00
71424;BME280;59240;51.370;-0.486;2023-11-21T02:14:22;101506.44;;;11.18;100.00
71424;BME280;59240;51.370;-0.486;2023-11-21T02:19:21;101537.59;;;11.30;100.00
71424;BME280;59240;51.370;-0.486;2023-11-21T02:24:29;101542.81;;;11.30;100.00
71424;BME280;59240;51.370;-0.486;2023-11-21T02:29:26;101520.34;;;11.20;100.00
71424;BME280;59240;51.370;-0.486;2023-11-21T02:34:25;101556.66;;;11.35;100.00
71424;BME280;59240;51.370;-0.486;2023-11-21T02:39:22;101555.81;;;11.35;100.00
71424;BME280;59240;51.370;-0.486;2023-11-21T02:44:19;101574.88;;;11.38;100.00
71424;BME280;59240;51.370;-0.486;2023-11-21T02:49:16;101584.41;;;11.42;100.00
71424;BME280;59240;51.370;-0.486;2023-11-21T02:54:12;101579.16;;;11.44;100.00
71424;BME280;59240;51.370;-0.486;2023-11-21T02:59:11;101592.16;;;11.45;100.00
71424;BME280;59240;51.370;-0.486;2023-11-21T03:04:08;101594.75;;;11.48;100.00
71424;BME280;59240;51.370;-0.486;2023-11-21T03:09:06;101607.81;;;11.48;100.00
71424;BME280;59240;51.370;-0.486;2023-11-21T03:14:03;101608.72;;;11.44;100.00
71424;BME280;59240;51.370;-0.486;2023-11-21T03:19:00;101613.03;;;11.48;100.00
71424;BME280;59240;51.370;-0.486;2023-11-21T03:23:57;101624.28;;;11.50;100.00
71424;BME280;59240;51.370;-0.486;2023-11-21T03:28:53;101572.47;;;11.23;100.00
71424;BME280;59240;51.370;-0.486;2023-11-21T03:33:50;101610.41;;;11.48;100.00
71424;BME280;59240;51.370;-0.486;2023-11-21T03:38:48;101617.34;;;11.49;100.00
71424;BME280;59240;51.370;-0.486;2023-11-21T03:43:44;101624.41;;;11.41;100.00
71424;BME280;59240;51.370;-0.486;2023-11-21T03:48:41;101631.31;;;11.45;100.00
71424;BME280;59240;51.370;-0.486;2023-11-21T03:53:38;101647.06;;;11.39;100.00
71424;BME280;59240;51.370;-0.486;2023-11-21T03:58:35;101653.22;;;11.31;100.00
71424;BME280;59240;51.370;-0.486;2023-11-21T04:03:32;101663.59;;;11.37;100.00
71424;BME280;59240;51.370;-0.486;2023-11-21T04:08:29;101642.91;;;11.21;100.00
71424;BME280;59240;51.370;-0.486;2023-11-21T04:13:25;101655.97;;;11.18;100.00
71424;BME280;59240;51.370;-0.486;2023-11-21T04:18:25;101658.59;;;11.17;100.00
71424;BME280;59240;51.370;-0.486;2023-11-21T04:23:22;101701.03;;;11.34;100.00
71424;BME280;59240;51.370;-0.486;2023-11-21T04:28:19;101709.78;;;11.27;100.00
71424;BME280;59240;51.370;-0.486;2023-11-21T04:33:16;101704.66;;;11.16;100.00
71424;BME280;59240;51.370;-0.486;2023-11-21T04:38:13;101731.56;;;11.23;100.00
71424;BME280;59240;51.370;-0.486;2023-11-21T04:43:10;101737.66;;;11.22;100.00
71424;BME280;59240;51.370;-0.486;2023-11-21T04:48:07;101741.16;;;11.18;100.00
71424;BME280;59240;51.370;-0.486;2023-11-21T04:53:05;101751.03;;;11.76;100.00
71424;BME280;59240;51.370;-0.486;2023-11-21T04:58:02;101755.31;;;11.78;100.00
71424;BME280;59240;51.370;-0.486;2023-11-21T05:03:00;101755.03;;;11.26;100.00
71424;BME280;59240;51.370;-0.486;2023-11-21T05:08:01;101753.63;;;11.76;100.00
71424;BME280;59240;51.370;-0.486;2023-11-21T05:12:58;101754.47;;;11.78;100.00
71424;BME280;59240;51.370;-0.486;2023-11-21T05:17:55;101767.25;;;11.19;100.00
71424;BME280;59240;51.370;-0.486;2023-11-21T05:22:56;101765.59;;;11.05;100.00
71424;BME280;59240;51.370;-0.486;2023-11-21T05:27:55;101766.41;;;11.14;100.00
71424;BME280;59240;51.370;-0.486;2023-11-21T05:32:52;101770.78;;;11.14;100.00
71424;BME280;59240;51.370;-0.486;2023-11-21T05:37:50;101787.31;;;11.10;100.00
71424;BME280;59240;51.370;-0.486;2023-11-21T05:42:47;101790.88;;;11.01;100.00
71424;BME280;59240;51.370;-0.486;2023-11-21T05:47:45;101802.13;;;11.05;100.00
71424;BME280;59240;51.370;-0.486;2023-11-21T05:52:46;101807.38;;;11.02;100.00
71424;BME280;59240;51.370;-0.486;2023-11-21T05:57:46;101837.78;;;11.03;100.00
71424;BME280;59240;51.370;-0.486;2023-11-21T06:02:42;101840.00;;;11.51;100.00
71424;BME280;59240;51.370;-0.486;2023-11-21T06:07:42;101843.72;;;11.26;100.00
71424;BME280;59240;51.370;-0.486;2023-11-21T06:12:42;101855.19;;;11.01;100.00
71424;BME280;59240;51.370;-0.486;2023-11-21T06:17:40;101876.94;;;10.98;100.00
71424;BME280;59240;51.370;-0.486;2023-11-21T06:22:39;101856.19;;;10.78;100.00
71424;BME280;59240;51.370;-0.486;2023-11-21T06:27:41;101896.13;;;10.86;100.00
71424;BME280;59240;51.370;-0.486;2023-11-21T06:32:39;101896.13;;;10.86;100.00
71424;BME280;59240;51.370;-0.486;2023-11-21T06:37:36;101901.31;;;10.88;100.00
71424;BME280;59240;51.370;-0.486;2023-11-21T06:42:36;101914.34;;;10.89;100.00
71424;BME280;59240;51.370;-0.486;2023-11-21T06:47:35;101920.47;;;10.85;100.00
71424;BME280;59240;51.370;-0.486;2023-11-21T06:52:32;101921.38;;;10.74;100.00
71424;BME280;59240;51.370;-0.486;2023-11-21T06:57:29;101928.34;;;10.65;100.00
71424;BME280;59240;51.370;-0.486;2023-11-21T07:02:26;101940.38;;;10.94;100.00
71424;BME280;59240;51.370;-0.486;2023-11-21T07:07:23;101950.84;;;10.88;100.00
71424;BME280;59240;51.370;-0.486;2023-11-21T07:12:20;101956.13;;;10.71;100.00
71424;BME280;59240;51.370;-0.486;2023-11-21T07:17:20;101960.28;;;11.10;100.00
71424;BME280;59240;51.370;-0.486;2023-11-21T07:22:19;101970.91;;;10.63;100.00
71424;BME280;59240;51.370;-0.486;2023-11-21T07:27:18;101988.31;;;10.61;100.00
71424;BME280;59240;51.370;-0.486;2023-11-21T07:32:15;101971.84;;;10.51;100.00
71424;BME280;59240;51.370;-0.486;2023-11-21T07:37:15;101997.88;;;10.59;100.00
71424;BME280;59240;51.370;-0.486;2023-11-21T07:42:12;101995.28;;;10.51;100.00
71424;BME280;59240;51.370;-0.486;2023-11-21T07:47:09;101982.28;;;10.45;100.00
71424;BME280;59240;51.370;-0.486;2023-11-21T07:52:06;102027.38;;;10.61;100.00
71424;BME280;59240;51.370;-0.486;2023-11-21T07:57:03;101981.41;;;10.32;100.00
71424;BME280;59240;51.370;-0.486;2023-11-21T08:02:00;102018.72;;;10.47;100.00
71424;BME280;59240;51.370;-0.486;2023-11-21T08:06:57;102030.00;;;10.61;100.00
71424;BME280;59240;51.370;-0.486;2023-11-21T08:11:54;102047.38;;;10.65;100.00
71424;BME280;59240;51.370;-0.486;2023-11-21T08:16:51;102049.09;;;10.72;100.00
71424;BME280;59240;51.370;-0.486;2023-11-21T08:21:49;102024.81;;;10.46;100.00
71424;BME280;59240;51.370;-0.486;2023-11-21T08:26:45;102047.31;;;10.77;100.00
71424;BME280;59240;51.370;-0.486;2023-11-21T08:31:42;102073.38;;;10.83;100.00
71424;BME280;59240;51.370;-0.486;2023-11-21T08:36:43;102073.38;;;10.86;100.00
71424;BME280;59240;51.370;-0.486;2023-11-21T08:41:40;102057.75;;;10.74;100.00
71424;BME280;59240;51.370;-0.486;2023-11-21T08:46:38;102081.16;;;10.91;100.00
71424;BME280;59240;51.370;-0.486;2023-11-21T08:51:38;102074.25;;;10.81;100.00
71424;BME280;59240;51.370;-0.486;2023-11-21T08:56:34;102084.66;;;10.90;100.00
71424;BME280;59240;51.370;-0.486;2023-11-21T09:01:32;102072.50;;;10.83;100.00
71424;BME280;59240;51.370;-0.486;2023-11-21T09:06:29;102104.59;;;11.05;100.00
71424;BME280;59240;51.370;-0.486;2023-11-21T09:11:26;102118.50;;;11.10;100.00
71424;BME280;59240;51.370;-0.486;2023-11-21T09:16:28;102107.16;;;11.18;100.00
71424;BME280;59240;51.370;-0.486;2023-11-21T09:21:24;102121.91;;;11.30;100.00
71424;BME280;59240;51.370;-0.486;2023-11-21T09:26:22;102087.22;;;11.13;100.00
71424;BME280;59240;51.370;-0.486;2023-11-21T09:31:19;102141.00;;;11.47;100.00
71424;BME280;59240;51.370;-0.486;2023-11-21T09:36:19;102153.16;;;11.55;100.00
71424;BME280;59240;51.370;-0.486;2023-11-21T09:41:26;102157.50;;;11.54;100.00
71424;BME280;59240;51.370;-0.486;2023-11-21T09:46:27;102151.44;;;11.44;100.00
71424;BME280;59240;51.370;-0.486;2023-11-21T09:51:27;102161.84;;;11.50;100.00
71424;BME280;59240;51.370;-0.486;2023-11-21T09:56:26;102163.63;;;11.48;100.00
71424;BME280;59240;51.370;-0.486;2023-11-21T10:01:24;102172.31;;;11.44;100.00
71424;BME280;59240;51.370;-0.486;2023-11-21T10:06:23;102181.03;;;11.46;100.00
71424;BME280;59240;51.370;-0.486;2023-11-21T10:11:26;102159.28;;;11.37;100.00
71424;BME280;59240;51.370;-0.486;2023-11-21T10:16:25;102193.13;;;11.58;100.00
71424;BME280;59240;51.370;-0.486;2023-11-21T10:21:23;102200.94;;;11.64;100.00
71424;BME280;59240;51.370;-0.486;2023-11-21T10:26:20;102200.09;;;11.62;100.00
71424;BME280;59240;51.370;-0.486;2023-11-21T10:31:27;102197.47;;;11.65;100.00
71424;BME280;59240;51.370;-0.486;2023-11-21T10:36:27;102202.66;;;11.76;100.00
71424;BME280;59240;51.370;-0.486;2023-11-21T10:41:24;102207.00;;;11.83;100.00
71424;BME280;59240;51.370;-0.486;2023-11-21T10:46:21;102196.56;;;11.77;100.00
71424;BME280;59240;51.370;-0.486;2023-11-21T10:51:20;102206.16;;;11.83;100.00
71424;BME280;59240;51.370;-0.486;2023-11-21T10:56:23;102191.38;;;11.68;100.00
71424;BME280;59240;51.370;-0.486;2023-11-21T11:01:21;102223.53;;;11.84;100.00
71424;BME280;59240;51.370;-0.486;2023-11-21T11:06:23;102214.00;;;11.81;100.00
71424;BME280;59240;51.370;-0.486;2023-11-21T11:11:22;102213.97;;;11.89;100.00
71424;BME280;59240;51.370;-0.486;2023-11-21T11:16:19;102213.91;;;11.96;100.00
71424;BME280;59240;51.370;-0.486;2023-11-21T11:21:27;102207.81;;;11.96;100.00
71424;BME280;59240;51.370;-0.486;2023-11-21T11:26:47;102222.56;;;12.06;100.00
71424;BME280;59240;51.370;-0.486;2023-11-21T11:31:55;102224.22;;;12.21;100.00
71424;BME280;59240;51.370;-0.486;2023-11-21T11:37:07;102216.38;;;12.28;100.00
71424;BME280;59240;51.370;-0.486;2023-11-21T11:42:14;102211.03;;;12.44;100.00
71424;BME280;59240;51.370;-0.486;2023-11-21T11:47:22;102198.84;;;12.43;100.00
71424;BME280;59240;51.370;-0.486;2023-11-21T11:52:36;102237.06;;;12.59;100.00
71424;BME280;59240;51.370;-0.486;2023-11-21T11:57:35;102231.81;;;12.59;100.00
71424;BME280;59240;51.370;-0.486;2023-11-21T12:02:34;102229.22;;;12.57;100.00
71424;BME280;59240;51.370;-0.486;2023-11-21T12:07:41;102225.78;;;12.52;100.00
71424;BME280;59240;51.370;-0.486;2023-11-21T12:12:42;102238.78;;;12.63;100.00
71424;BME280;59240;51.370;-0.486;2023-11-21T12:17:43;102236.22;;;12.52;100.00
71424;BME280;59240;51.370;-0.486;2023-11-21T12:22:48;102256.28;;;12.52;100.00
71424;BME280;59240;51.370;-0.486;2023-11-21T12:27:46;102275.44;;;12.52;100.00
71424;BME280;59240;51.370;-0.486;2023-11-21T12:32:50;102279.84;;;12.44;100.00
71424;BME280;59240;51.370;-0.486;2023-11-21T12:37:51;102283.38;;;12.37;100.00
71424;BME280;59240;51.370;-0.486;2023-11-21T12:42:51;102286.00;;;12.28;100.00
71424;BME280;59240;51.370;-0.486;2023-11-21T12:47:49;102297.34;;;12.30;100.00
71424;BME280;59240;51.370;-0.486;2023-11-21T12:52:51;102299.03;;;12.43;100.00
71424;BME280;59240;51.370;-0.486;2023-11-21T12:57:52;102302.44;;;12.53;100.00
71424;BME280;59240;51.370;-0.486;2023-11-21T13:02:51;102304.16;;;12.55;100.00
71424;BME280;59240;51.370;-0.486;2023-11-21T13:07:51;102301.63;;;12.42;100.00
71424;BME280;59240;51.370;-0.486;2023-11-21T13:12:51;102326.00;;;12.51;100.00
71424;BME280;59240;51.370;-0.486;2023-11-21T13:17:48;102323.19;;;12.82;100.00
71424;BME280;59240;51.370;-0.486;2023-11-21T13:22:48;102329.53;;;12.35;100.00
71424;BME280;59240;51.370;-0.486;2023-11-21T13:27:45;102339.16;;;12.30;100.00
71424;BME280;59240;51.370;-0.486;2023-11-21T13:32:45;102321.78;;;12.14;100.00
71424;BME280;59240;51.370;-0.486;2023-11-21T13:37:43;102350.53;;;12.18;100.00
71424;BME280;59240;51.370;-0.486;2023-11-21T13:42:42;102332.22;;;12.23;100.00
71424;BME280;59240;51.370;-0.486;2023-11-21T13:47:39;102352.31;;;11.93;100.00
71424;BME280;59240;51.370;-0.486;2023-11-21T13:52:36;102347.13;;;11.78;100.00
71424;BME280;59240;51.370;-0.486;2023-11-21T13:57:35;102370.63;;;11.73;100.00
71424;BME280;59240;51.370;-0.486;2023-11-21T14:02:32;102388.03;;;11.67;100.00
71424;BME280;59240;51.370;-0.486;2023-11-21T14:07:36;102398.50;;;11.61;100.00
71424;BME280;59240;51.370;-0.486;2023-11-21T14:12:34;102392.41;;;11.48;100.00
71424;BME280;59240;51.370;-0.486;2023-11-21T14:17:35;102410.66;;;11.46;100.00
71424;BME280;59240;51.370;-0.486;2023-11-21T14:22:34;102416.75;;;11.39;100.00
71424;BME280;59240;51.370;-0.486;2023-11-21T14:27:31;102394.09;;;11.23;100.00
71424;BME280;59240;51.370;-0.486;2023-11-21T14:32:32;102408.91;;;11.27;100.00
71424;BME280;59240;51.370;-0.486;2023-11-21T14:37:28;102429.81;;;11.39;100.00
71424;BME280;59240;51.370;-0.486;2023-11-21T14:42:28;102453.28;;;11.44;100.00
71424;BME280;59240;51.370;-0.486;2023-11-21T14:47:26;102421.06;;;11.19;100.00
71424;BME280;59240;51.370;-0.486;2023-11-21T14:52:24;102418.44;;;11.05;100.00
71424;BME280;59240;51.370;-0.486;2023-11-21T14:57:33;102487.16;;;11.30;100.00
71424;BME280;59240;51.370;-0.486;2023-11-21T15:02:30;102457.53;;;11.02;100.00
71424;BME280;59240;51.370;-0.486;2023-11-21T15:07:46;102505.41;;;11.21;100.00
71424;BME280;59240;51.370;-0.486;2023-11-21T15:12:45;102489.75;;;11.16;100.00
71424;BME280;59240;51.370;-0.486;2023-11-21T15:17:42;102485.41;;;11.14;100.00
71424;BME280;59240;51.370;-0.486;2023-11-21T15:22:40;102494.06;;;11.10;100.00
71424;BME280;59240;51.370;-0.486;2023-11-21T15:27:37;102473.13;;;10.87;100.00
71424;BME280;59240;51.370;-0.486;2023-11-21T15:32:35;102531.44;;;11.00;100.00
71424;BME280;59240;51.370;-0.486;2023-11-21T15:37:32;102489.59;;;10.77;100.00
71424;BME280;59240;51.370;-0.486;2023-11-21T15:42:28;102496.56;;;10.78;100.00
71424;BME280;59240;51.370;-0.486;2023-11-21T15:47:25;102513.94;;;10.79;100.00
71424;BME280;59240;51.370;-0.486;2023-11-21T15:52:22;102481.66;;;10.54;100.00
71424;BME280;59240;51.370;-0.486;2023-11-21T15:57:19;102507.75;;;10.63;100.00
71424;BME280;59240;51.370;-0.486;2023-11-21T16:02:18;102529.53;;;10.69;100.00
71424;BME280;59240;51.370;-0.486;2023-11-21T16:07:18;102516.41;;;10.56;100.00
71424;BME280;59240;51.370;-0.486;2023-11-21T16:12:19;102539.97;;;10.71;100.00
71424;BME280;59240;51.370;-0.486;2023-11-21T16:17:17;102528.63;;;10.60;100.00
71424;BME280;59240;51.370;-0.486;2023-11-21T16:22:22;102580.78;;;10.69;100.00
71424;BME280;59240;51.370;-0.486;2023-11-21T16:27:19;102605.97;;;10.65;100.00
71424;BME280;59240;51.370;-0.486;2023-11-21T16:32:16;102608.50;;;10.55;100.00
71424;BME280;59240;51.370;-0.486;2023-11-21T16:37:14;102595.41;;;10.46;100.00
71424;BME280;59240;51.370;-0.486;2023-11-21T16:42:11;102604.00;;;10.35;100.00
71424;BME280;59240;51.370;-0.486;2023-11-21T16:47:10;102632.59;;;10.29;100.00
71424;BME280;59240;51.370;-0.486;2023-11-21T16:52:07;102630.75;;;10.19;100.00
71424;BME280;59240;51.370;-0.486;2023-11-21T16:57:06;102642.97;;;10.23;100.00
71424;BME280;59240;51.370;-0.486;2023-11-21T17:02:05;102654.19;;;10.21;100.00
71424;BME280;59240;51.370;-0.486;2023-11-21T17:07:03;102658.47;;;10.14;100.00
71424;BME280;59240;51.370;-0.486;2023-11-21T17:11:59;102675.72;;;10.03;100.00
71424;BME280;59240;51.370;-0.486;2023-11-21T17:16:58;102686.09;;;10.00;100.00
71424;BME280;59240;51.370;-0.486;2023-11-21T17:21:56;102642.25;;;9.59;100.00
71424;BME280;59240;51.370;-0.486;2023-11-21T17:26:53;102703.28;;;9.82;100.00
71424;BME280;59240;51.370;-0.486;2023-11-21T17:31:50;102711.88;;;9.78;100.00
71424;BME280;59240;51.370;-0.486;2023-11-21T17:36:47;102701.13;;;9.51;100.00
71424;BME280;59240;51.370;-0.486;2023-11-21T17:41:44;102758.53;;;9.63;100.00
71424;BME280;59240;51.370;-0.486;2023-11-21T17:46:41;102764.56;;;9.60;100.00
71424;BME280;59240;51.370;-0.486;2023-11-21T17:51:40;102754.13;;;9.57;100.00
71424;BME280;59240;51.370;-0.486;2023-11-21T17:56:37;102760.19;;;9.58;100.00
71424;BME280;59240;51.370;-0.486;2023-11-21T18:01:36;102774.16;;;9.63;100.00
71424;BME280;59240;51.370;-0.486;2023-11-21T18:06:34;102768.94;;;9.63;100.00
71424;BME280;59240;51.370;-0.486;2023-11-21T18:11:31;102764.03;;;9.84;100.00
71424;BME280;59240;51.370;-0.486;2023-11-21T18:16:28;102777.69;;;9.68;100.00
71424;BME280;59240;51.370;-0.486;2023-11-21T18:21:25;102782.94;;;9.71;100.00
71424;BME280;59240;51.370;-0.486;2023-11-21T18:26:21;102758.44;;;9.57;100.00
71424;BME280;59240;51.370;-0.486;2023-11-21T18:31:19;102795.91;;;9.68;100.00
71424;BME280;59240;51.370;-0.486;2023-11-21T18:36:15;102803.78;;;9.74;100.00
71424;BME280;59240;51.370;-0.486;2023-11-21T18:41:22;102818.66;;;9.81;100.00
71424;BME280;59240;51.370;-0.486;2023-11-21T18:46:20;102823.00;;;9.82;100.00
71424;BME280;59240;51.370;-0.486;2023-11-21T18:51:17;102823.03;;;9.85;100.00
71424;BME280;59240;51.370;-0.486;2023-11-21T18:56:21;102834.34;;;9.87;100.00
71424;BME280;59240;51.370;-0.486;2023-11-21T19:01:27;102828.31;;;9.89;100.00
71424;BME280;59240;51.370;-0.486;2023-11-21T19:06:24;102821.38;;;9.91;100.00
71424;BME280;59240;51.370;-0.486;2023-11-21T19:11:21;102821.38;;;9.91;100.00
71424;BME280;59240;51.370;-0.486;2023-11-21T19:16:19;102825.72;;;9.92;100.00
71424;BME280;59240;51.370;-0.486;2023-11-21T19:21:18;102816.09;;;9.84;100.00
71424;BME280;59240;51.370;-0.486;2023-11-21T19:26:17;102840.50;;;9.93;100.00
71424;BME280;59240;51.370;-0.486;2023-11-21T19:31:15;102841.34;;;9.90;100.00
71424;BME280;59240;51.370;-0.486;2023-11-21T19:36:16;102854.38;;;9.92;100.00
71424;BME280;59240;51.370;-0.486;2023-11-21T19:41:20;102821.09;;;9.69;100.00
71424;BME280;59240;51.370;-0.486;2023-11-21T19:46:17;102856.00;;;9.83;100.00
71424;BME280;59240;51.370;-0.486;2023-11-21T19:51:15;102866.53;;;9.93;100.00
71424;BME280;59240;51.370;-0.486;2023-11-21T19:56:11;102870.00;;;9.95;100.00
71424;BME280;59240;51.370;-0.486;2023-11-21T20:01:09;102857.75;;;9.84;100.00
71424;BME280;59240;51.370;-0.486;2023-11-21T20:06:06;102881.34;;;9.97;100.00
71424;BME280;59240;51.370;-0.486;2023-11-21T20:11:04;102883.97;;;9.97;100.00
71424;BME280;59240;51.370;-0.486;2023-11-21T20:16:01;102888.22;;;9.93;100.00
71424;BME280;59240;51.370;-0.486;2023-11-21T20:20:58;102882.81;;;9.78;100.00
71424;BME280;59240;51.370;-0.486;2023-11-21T20:25:54;102924.75;;;9.96;100.00
71424;BME280;59240;51.370;-0.486;2023-11-21T20:30:54;102898.41;;;9.78;100.00
71424;BME280;59240;51.370;-0.486;2023-11-21T20:35:53;102914.22;;;9.89;100.00
71424;BME280;59240;51.370;-0.486;2023-11-21T20:40:50;102893.13;;;9.73;100.00
71424;BME280;59240;51.370;-0.486;2023-11-21T20:45:47;102916.75;;;9.85;100.00
71424;BME280;59240;51.370;-0.486;2023-11-21T20:50:44;102922.06;;;9.92;100.00
71424;BME280;59240;51.370;-0.486;2023-11-21T20:55:41;102910.72;;;9.88;100.00
71424;BME280;59240;51.370;-0.486;2023-11-21T21:00:39;102877.38;;;9.63;100.00
71424;BME280;59240;51.370;-0.486;2023-11-21T21:05:36;102907.97;;;9.77;100.00
71424;BME280;59240;51.370;-0.486;2023-11-21T21:10:32;102918.38;;;9.77;100.00
71424;BME280;59240;51.370;-0.486;2023-11-21T21:15:29;102920.03;;;9.72;100.00
71424;BME280;59240;51.370;-0.486;2023-11-21T21:20:26;102920.00;;;9.69;100.00
71424;BME280;59240;51.370;-0.486;2023-11-21T21:25:23;102882.94;;;9.32;100.00
71424;BME280;59240;51.370;-0.486;2023-11-21T21:30:20;102913.47;;;9.43;100.00
71424;BME280;59240;51.370;-0.486;2023-11-21T21:35:19;102939.72;;;9.55;100.00
71424;BME280;59240;51.370;-0.486;2023-11-21T21:40:17;102925.72;;;9.48;100.00
71424;BME280;59240;51.370;-0.486;2023-11-21T21:45:14;102904.59;;;9.31;100.00
71424;BME280;59240;51.370;-0.486;2023-11-21T21:50:11;102924.75;;;9.42;100.00
71424;BME280;59240;51.370;-0.486;2023-11-21T21:55:08;102931.56;;;9.37;100.00
71424;BME280;59240;51.370;-0.486;2023-11-21T22:00:13;102923.66;;;9.30;100.00
71424;BME280;59240;51.370;-0.486;2023-11-21T22:05:13;102933.22;;;9.31;100.00
71424;BME280;59240;51.370;-0.486;2023-11-21T22:10:10;102933.19;;;9.28;100.00
71424;BME280;59240;51.370;-0.486;2023-11-21T22:15:07;102934.91;;;9.28;100.00
71424;BME280;59240;51.370;-0.486;2023-11-21T22:20:06;102929.38;;;9.11;100.00
71424;BME280;59240;51.370;-0.486;2023-11-21T22:25:04;102931.09;;;9.09;100.00
71424;BME280;59240;51.370;-0.486;2023-11-21T22:30:04;102934.47;;;9.05;100.00
71424;BME280;59240;51.370;-0.486;2023-11-21T22:35:01;102988.44;;;9.18;100.00
71424;BME280;59240;51.370;-0.486;2023-11-21T22:39:59;102991.91;;;9.17;100.00
71424;BME280;59240;51.370;-0.486;2023-11-21T22:44:56;102987.56;;;9.16;100.00
71424;BME280;59240;51.370;-0.486;2023-11-21T22:49:52;102984.91;;;9.13;100.00
71424;BME280;59240;51.370;-0.486;2023-11-21T22:54:50;102990.03;;;9.10;100.00
71424;BME280;59240;51.370;-0.486;2023-11-21T22:59:49;102976.75;;;8.96;100.00
71424;BME280;59240;51.370;-0.486;2023-11-21T23:04:49;102981.97;;;8.96;100.00
71424;BME280;59240;51.370;-0.486;2023-11-21T23:09:48;102995.78;;;8.94;100.00
71424;BME280;59240;51.370;-0.486;2023-11-21T23:14:45;102957.84;;;8.61;100.00
71424;BME280;59240;51.370;-0.486;2023-11-21T23:19:41;102997.13;;;8.75;100.00
71424;BME280;59240;51.370;-0.486;2023-11-21T23:24:46;102993.47;;;8.65;100.00
71424;BME280;59240;51.370;-0.486;2023-11-21T23:29:46;102977.34;;;8.42;100.00
71424;BME280;59240;51.370;-0.486;2023-11-21T23:34:46;102999.16;;;8.49;100.00
71424;BME280;59240;51.370;-0.486;2023-11-21T23:39:43;102980.78;;;8.40;100.00
71424;BME280;59240;51.370;-0.486;2023-11-21T23:44:40;102969.31;;;8.32;100.00
71424;BME280;59240;51.370;-0.486;2023-11-21T23:49:37;102970.78;;;8.20;100.00
71424;BME280;59240;51.370;-0.486;2023-11-21T23:54:36;102975.03;;;8.17;100.00
71424;BME280;59240;51.370;-0.486;2023-11-21T23:59:32;102976.63;;;8.10;100.00
